sensor_id;sensor_type;location;lat;lon;timestamp;pressure;altitude;pressure_sealevel;temperature;humidity
20983;BME280;10650;51.528;6.748;2023-02-16T00:02:10;102271.59;;;7.78;70.09
20983;BME280;10650;51.528;6.748;2023-02-16T00:04:38;102261.75;;;7.76;70.15
20983;BME280;10650;51.528;6.748;2023-02-16T00:07:06;102262.59;;;7.75;70.52
20983;BME280;10650;51.528;6.748;2023-02-16T00:09:33;102259.91;;;7.73;70.29
20983;BME280;10650;51.528;6.748;2023-02-16T00:12:02;102258.16;;;7.74;70.58
20983;BME280;10650;51.528;6.748;2023-02-16T00:14:48;102251.88;;;7.72;70.44
20983;BME280;10650;51.528;6.748;2023-02-16T00:17:16;102258.13;;;7.72;70.61
20983;BME280;10650;51.528;6.748;2023-02-16T00:19:44;102260.78;;;7.72;71.14
20983;BME280;10650;51.528;6.748;2023-02-16T00:22:11;102257.25;;;7.73;70.95
20983;BME280;10650;51.528;6.748;2023-02-16T00:24:39;102254.53;;;7.72;70.86
20983;BME280;10650;51.528;6.748;2023-02-16T00:27:12;102263.44;;;7.72;70.40
20983;BME280;10650;51.528;6.748;2023-02-16T00:29:40;102260.78;;;7.72;70.35
20983;BME280;10650;51.528;6.748;2023-02-16T00:32:12;102250.13;;;7.72;70.64
20983;BME280;10650;51.528;6.748;2023-02-16T00:34:41;102254.53;;;7.72;70.20
20983;BME280;10650;51.528;6.748;2023-02-16T00:37:11;102251.84;;;7.70;70.47
20983;BME280;10650;51.528;6.748;2023-02-16T00:39:40;102249.09;;;7.67;70.45
20983;BME280;10650;51.528;6.748;2023-02-16T00:42:13;102247.25;;;7.65;70.98
20983;BME280;10650;51.528;6.748;2023-02-16T00:44:45;102235.88;;;7.70;71.02
20983;BME280;10650;51.528;6.748;2023-02-16T00:47:19;102243.13;;;7.76;71.43
20983;BME280;10650;51.528;6.748;2023-02-16T00:49:50;102235.34;;;7.84;71.27
20983;BME280;10650;51.528;6.748;2023-02-16T00:52:36;102236.28;;;7.86;71.49
20983;BME280;10650;51.528;6.748;2023-02-16T00:55:07;102241.66;;;7.87;70.98
20983;BME280;10650;51.528;6.748;2023-02-16T00:57:38;102242.50;;;7.86;70.32
20983;BME280;10650;51.528;6.748;2023-02-16T01:00:13;102248.63;;;7.84;70.50
20983;BME280;10650;51.528;6.748;2023-02-16T01:02:45;102240.53;;;7.79;70.74
20983;BME280;10650;51.528;6.748;2023-02-16T01:05:13;102242.22;;;7.75;70.38
20983;BME280;10650;51.528;6.748;2023-02-16T01:07:41;102244.81;;;7.72;70.50
20983;BME280;10650;51.528;6.748;2023-02-16T01:10:28;102239.38;;;7.69;70.27
20983;BME280;10650;51.528;6.748;2023-02-16T01:13:13;102242.84;;;7.65;70.59
20983;BME280;10650;51.528;6.748;2023-02-16T01:15:42;102245.41;;;7.62;70.10
20983;BME280;10650;51.528;6.748;2023-02-16T01:18:14;102239.19;;;7.61;70.33
20983;BME280;10650;51.528;6.748;2023-02-16T01:20:42;102246.22;;;7.58;70.17
20983;BME280;10650;51.528;6.748;2023-02-16T01:23:11;102242.50;;;7.53;70.04
20983;BME280;10650;51.528;6.748;2023-02-16T01:25:39;102245.81;;;7.44;70.24
20983;BME280;10650;51.528;6.748;2023-02-16T01:28:16;102246.53;;;7.38;70.59
20983;BME280;10650;51.528;6.748;2023-02-16T01:30:44;102236.59;;;7.31;70.71
20983;BME280;10650;51.528;6.748;2023-02-16T01:33:13;102233.81;;;7.26;70.55
20983;BME280;10650;51.528;6.748;2023-02-16T01:35:41;102231.91;;;7.22;71.03
20983;BME280;10650;51.528;6.748;2023-02-16T01:38:15;102238.84;;;7.17;70.72
20983;BME280;10650;51.528;6.748;2023-02-16T01:40:50;102236.19;;;7.17;70.93
20983;BME280;10650;51.528;6.748;2023-02-16T01:43:21;102245.84;;;7.14;70.94
20983;BME280;10650;51.528;6.748;2023-02-16T01:45:53;102236.81;;;7.08;70.94
20983;BME280;10650;51.528;6.748;2023-02-16T01:48:26;102240.28;;;7.06;71.17
20983;BME280;10650;51.528;6.748;2023-02-16T01:51:00;102230.47;;;7.03;71.18
20983;BME280;10650;51.528;6.748;2023-02-16T01:53:31;102235.69;;;7.00;71.63
20983;BME280;10650;51.528;6.748;2023-02-16T01:56:03;102239.31;;;7.02;71.27
20983;BME280;10650;51.528;6.748;2023-02-16T01:58:39;102231.25;;;6.99;71.43
20983;BME280;10650;51.528;6.748;2023-02-16T02:01:40;102235.66;;;6.99;71.07
20983;BME280;10650;51.528;6.748;2023-02-16T02:04:16;102229.41;;;6.97;71.35
20983;BME280;10650;51.528;6.748;2023-02-16T02:07:02;102239.22;;;6.99;71.92
20983;BME280;10650;51.528;6.748;2023-02-16T02:09:36;102231.34;;;7.02;71.92
20983;BME280;10650;51.528;6.748;2023-02-16T02:12:12;102217.09;;;7.00;71.49
20983;BME280;10650;51.528;6.748;2023-02-16T02:14:41;102222.41;;;7.00;71.87
20983;BME280;10650;51.528;6.748;2023-02-16T02:17:12;102218.06;;;7.02;71.83
20983;BME280;10650;51.528;6.748;2023-02-16T02:19:53;102220.84;;;7.07;71.90
20983;BME280;10650;51.528;6.748;2023-02-16T02:22:57;102206.59;;;7.05;71.68
20983;BME280;10650;51.528;6.748;2023-02-16T02:29:08;102211.06;;;7.06;71.44
20983;BME280;10650;51.528;6.748;2023-02-16T02:31:48;102210.13;;;7.04;71.72
20983;BME280;10650;51.528;6.748;2023-02-16T02:34:24;102202.22;;;7.07;71.65
20983;BME280;10650;51.528;6.748;2023-02-16T02:37:02;102196.03;;;7.06;71.90
20983;BME280;10650;51.528;6.748;2023-02-16T02:39:45;102191.63;;;7.08;71.68
20983;BME280;10650;51.528;6.748;2023-02-16T02:42:18;102184.69;;;7.12;71.64
20983;BME280;10650;51.528;6.748;2023-02-16T02:44:54;102180.16;;;7.09;71.22
20983;BME280;10650;51.528;6.748;2023-02-16T02:47:36;102180.13;;;7.08;71.40
20983;BME280;10650;51.528;6.748;2023-02-16T02:50:30;102173.75;;;7.03;70.91
20983;BME280;10650;51.528;6.748;2023-02-16T02:53:03;102172.78;;;6.99;71.25
20983;BME280;10650;51.528;6.748;2023-02-16T02:55:33;102176.19;;;6.93;70.59
20983;BME280;10650;51.528;6.748;2023-02-16T02:58:22;102169.84;;;6.90;70.92
20983;BME280;10650;51.528;6.748;2023-02-16T03:01:12;102173.28;;;6.86;70.85
20983;BME280;10650;51.528;6.748;2023-02-16T03:03:45;102161.72;;;6.84;71.20
20983;BME280;10650;51.528;6.748;2023-02-16T03:06:19;102167.78;;;6.80;71.05
20983;BME280;10650;51.528;6.748;2023-02-16T03:08:53;102165.06;;;6.77;70.92
20983;BME280;10650;51.528;6.748;2023-02-16T03:11:23;102172.81;;;6.70;71.04
20983;BME280;10650;51.528;6.748;2023-02-16T03:14:15;102163.03;;;6.68;71.40
20983;BME280;10650;51.528;6.748;2023-02-16T03:16:47;102149.69;;;6.66;71.57
20983;BME280;10650;51.528;6.748;2023-02-16T03:19:16;102154.13;;;6.67;71.65
20983;BME280;10650;51.528;6.748;2023-02-16T03:22:03;102149.88;;;6.72;71.51
20983;BME280;10650;51.528;6.748;2023-02-16T03:24:49;102151.78;;;6.77;71.32
20983;BME280;10650;51.528;6.748;2023-02-16T03:27:37;102146.41;;;6.75;71.00
20983;BME280;10650;51.528;6.748;2023-02-16T03:30:24;102150.72;;;6.71;71.14
20983;BME280;10650;51.528;6.748;2023-02-16T03:32:54;102154.25;;;6.72;71.44
20983;BME280;10650;51.528;6.748;2023-02-16T03:35:22;102160.53;;;6.74;71.26
20983;BME280;10650;51.528;6.748;2023-02-16T03:37:50;102150.84;;;6.76;71.42
20983;BME280;10650;51.528;6.748;2023-02-16T03:40:19;102153.69;;;6.82;71.41
20983;BME280;10650;51.528;6.748;2023-02-16T03:43:00;102147.66;;;6.88;71.27
20983;BME280;10650;51.528;6.748;2023-02-16T03:45:29;102162.88;;;6.93;71.09
20983;BME280;10650;51.528;6.748;2023-02-16T03:47:59;102163.97;;;7.02;70.81
20983;BME280;10650;51.528;6.748;2023-02-16T03:50:27;102170.38;;;7.08;70.56
20983;BME280;10650;51.528;6.748;2023-02-16T03:52:55;102165.31;;;7.18;70.36
20983;BME280;10650;51.528;6.748;2023-02-16T03:55:33;102160.06;;;7.19;70.40
20983;BME280;10650;51.528;6.748;2023-02-16T03:58:01;102160.09;;;7.21;69.93
20983;BME280;10650;51.528;6.748;2023-02-16T04:00:29;102162.72;;;7.19;70.00
20983;BME280;10650;51.528;6.748;2023-02-16T04:02:57;102154.69;;;7.18;70.36
20983;BME280;10650;51.528;6.748;2023-02-16T04:05:26;102162.66;;;7.18;70.35
20983;BME280;10650;51.528;6.748;2023-02-16T04:07:54;102155.63;;;7.20;70.38
20983;BME280;10650;51.528;6.748;2023-02-16T04:10:22;102156.44;;;7.17;69.99
20983;BME280;10650;51.528;6.748;2023-02-16T04:12:50;102159.06;;;7.16;69.88
20983;BME280;10650;51.528;6.748;2023-02-16T04:15:20;102156.38;;;7.14;69.65
20983;BME280;10650;51.528;6.748;2023-02-16T04:17:48;102154.44;;;7.08;69.66
20983;BME280;10650;51.528;6.748;2023-02-16T04:20:18;102149.84;;;7.03;69.63
20983;BME280;10650;51.528;6.748;2023-02-16T04:22:48;102156.88;;;7.01;70.03
20983;BME280;10650;51.528;6.748;2023-02-16T04:25:16;102158.53;;;6.97;70.06
20983;BME280;10650;51.528;6.748;2023-02-16T04:27:45;102155.72;;;6.91;69.89
20983;BME280;10650;51.528;6.748;2023-02-16T04:30:16;102164.50;;;6.88;69.93
20983;BME280;10650;51.528;6.748;2023-02-16T04:32:44;102162.66;;;6.86;70.01
20983;BME280;10650;51.528;6.748;2023-02-16T04:35:12;102167.91;;;6.84;70.10
20983;BME280;10650;51.528;6.748;2023-02-16T04:37:40;102167.88;;;6.83;70.38
20983;BME280;10650;51.528;6.748;2023-02-16T04:40:10;102169.66;;;6.82;70.15
20983;BME280;10650;51.528;6.748;2023-02-16T04:42:39;102165.97;;;6.79;70.02
20983;BME280;10650;51.528;6.748;2023-02-16T04:45:08;102165.00;;;6.75;70.31
20983;BME280;10650;51.528;6.748;2023-02-16T04:47:36;102162.34;;;6.75;70.33
20983;BME280;10650;51.528;6.748;2023-02-16T04:50:05;102167.66;;;6.75;70.59
20983;BME280;10650;51.528;6.748;2023-02-16T04:52:33;102163.13;;;6.71;70.44
20983;BME280;10650;51.528;6.748;2023-02-16T04:55:02;102151.47;;;6.67;70.30
20983;BME280;10650;51.528;6.748;2023-02-16T04:57:32;102155.84;;;6.65;70.81
20983;BME280;10650;51.528;6.748;2023-02-16T05:00:00;102154.84;;;6.62;70.77
20983;BME280;10650;51.528;6.748;2023-02-16T05:02:27;102140.69;;;6.61;70.96
20983;BME280;10650;51.528;6.748;2023-02-16T05:04:55;102143.38;;;6.63;70.93
20983;BME280;10650;51.528;6.748;2023-02-16T05:07:23;102150.41;;;6.61;70.87
20983;BME280;10650;51.528;6.748;2023-02-16T05:09:51;102156.50;;;6.56;70.99
20983;BME280;10650;51.528;6.748;2023-02-16T05:12:18;102164.41;;;6.55;71.01
20983;BME280;10650;51.528;6.748;2023-02-16T05:15:06;102151.97;;;6.54;71.23
20983;BME280;10650;51.528;6.748;2023-02-16T05:17:33;102155.53;;;6.54;71.14
20983;BME280;10650;51.528;6.748;2023-02-16T05:20:01;102163.41;;;6.51;71.03
20983;BME280;10650;51.528;6.748;2023-02-16T05:22:29;102150.97;;;6.50;71.25
20983;BME280;10650;51.528;6.748;2023-02-16T05:24:58;102153.53;;;6.47;71.23
20983;BME280;10650;51.528;6.748;2023-02-16T05:27:28;102149.03;;;6.45;71.18
20983;BME280;10650;51.528;6.748;2023-02-16T05:29:56;102157.91;;;6.45;70.91
20983;BME280;10650;51.528;6.748;2023-02-16T05:32:26;102165.91;;;6.47;71.41
20983;BME280;10650;51.528;6.748;2023-02-16T05:34:54;102177.44;;;6.47;70.91
20983;BME280;10650;51.528;6.748;2023-02-16T05:37:22;102166.84;;;6.49;70.93
20983;BME280;10650;51.528;6.748;2023-02-16T05:39:50;102169.56;;;6.50;71.49
20983;BME280;10650;51.528;6.748;2023-02-16T05:42:19;102169.56;;;6.50;71.20
20983;BME280;10650;51.528;6.748;2023-02-16T05:44:46;102165.22;;;6.52;71.23
20983;BME280;10650;51.528;6.748;2023-02-16T05:47:14;102167.88;;;6.52;71.38
20983;BME280;10650;51.528;6.748;2023-02-16T05:49:43;102169.72;;;6.55;71.37
20983;BME280;10650;51.528;6.748;2023-02-16T05:52:11;102160.03;;;6.57;71.48
20983;BME280;10650;51.528;6.748;2023-02-16T05:54:39;102168.97;;;6.59;71.29
20983;BME280;10650;51.528;6.748;2023-02-16T05:57:08;102158.34;;;6.59;71.20
20983;BME280;10650;51.528;6.748;2023-02-16T05:59:36;102155.59;;;6.57;71.33
20983;BME280;10650;51.528;6.748;2023-02-16T06:02:04;102156.44;;;6.55;71.24
20983;BME280;10650;51.528;6.748;2023-02-16T06:04:33;102158.19;;;6.54;71.29
20983;BME280;10650;51.528;6.748;2023-02-16T06:07:02;102152.06;;;6.57;71.21
20983;BME280;10650;51.528;6.748;2023-02-16T06:09:30;102146.78;;;6.58;71.09
20983;BME280;10650;51.528;6.748;2023-02-16T06:11:57;102157.50;;;6.62;71.51
20983;BME280;10650;51.528;6.748;2023-02-16T06:14:25;102153.97;;;6.61;71.29
20983;BME280;10650;51.528;6.748;2023-02-16T06:16:53;102151.31;;;6.61;71.17
20983;BME280;10650;51.528;6.748;2023-02-16T06:19:22;102144.28;;;6.63;71.18
20983;BME280;10650;51.528;6.748;2023-02-16T06:21:49;102132.88;;;6.67;71.02
20983;BME280;10650;51.528;6.748;2023-02-16T06:24:19;102147.97;;;6.68;70.66
20983;BME280;10650;51.528;6.748;2023-02-16T06:26:46;102144.56;;;6.72;70.98
20983;BME280;10650;51.528;6.748;2023-02-16T06:29:14;102144.59;;;6.74;70.65
20983;BME280;10650;51.528;6.748;2023-02-16T06:31:42;102139.28;;;6.74;70.85
20983;BME280;10650;51.528;6.748;2023-02-16T06:34:10;102146.44;;;6.77;70.61
20983;BME280;10650;51.528;6.748;2023-02-16T06:36:37;102149.16;;;6.78;70.41
20983;BME280;10650;51.528;6.748;2023-02-16T06:39:08;102151.81;;;6.78;70.55
20983;BME280;10650;51.528;6.748;2023-02-16T06:41:37;102155.41;;;6.80;70.23
20983;BME280;10650;51.528;6.748;2023-02-16T06:44:08;102160.75;;;6.82;70.13
20983;BME280;10650;51.528;6.748;2023-02-16T06:46:37;102160.78;;;6.83;69.91
20983;BME280;10650;51.528;6.748;2023-02-16T06:49:05;102153.78;;;6.85;70.35
20983;BME280;10650;51.528;6.748;2023-02-16T06:51:33;102152.97;;;6.88;69.99
20983;BME280;10650;51.528;6.748;2023-02-16T06:54:02;102149.56;;;6.92;69.92
20983;BME280;10650;51.528;6.748;2023-02-16T06:56:30;102146.06;;;6.95;70.24
20983;BME280;10650;51.528;6.748;2023-02-16T06:59:00;102143.44;;;6.96;69.59
20983;BME280;10650;51.528;6.748;2023-02-16T07:01:28;102148.75;;;6.96;69.63
20983;BME280;10650;51.528;6.748;2023-02-16T07:03:56;102147.03;;;6.97;69.71
20983;BME280;10650;51.528;6.748;2023-02-16T07:06:26;102149.72;;;6.98;69.72
20983;BME280;10650;51.528;6.748;2023-02-16T07:08:54;102147.09;;;7.00;69.66
20983;BME280;10650;51.528;6.748;2023-02-16T07:11:22;102156.97;;;7.04;69.76
20983;BME280;10650;51.528;6.748;2023-02-16T07:13:50;102147.31;;;7.07;69.60
20983;BME280;10650;51.528;6.748;2023-02-16T07:16:19;102143.72;;;7.05;69.21
20983;BME280;10650;51.528;6.748;2023-02-16T07:18:47;102138.50;;;7.08;68.94
20983;BME280;10650;51.528;6.748;2023-02-16T07:21:15;102137.59;;;7.08;69.30
20983;BME280;10650;51.528;6.748;2023-02-16T07:23:43;102157.09;;;7.08;68.82
20983;BME280;10650;51.528;6.748;2023-02-16T07:26:11;102154.44;;;7.08;68.76
20983;BME280;10650;51.528;6.748;2023-02-16T07:28:39;102163.41;;;7.12;68.75
20983;BME280;10650;51.528;6.748;2023-02-16T07:31:08;102156.31;;;7.13;68.62
20983;BME280;10650;51.528;6.748;2023-02-16T07:33:38;102155.50;;;7.15;68.71
20983;BME280;10650;51.528;6.748;2023-02-16T07:36:07;102159.09;;;7.17;68.72
20983;BME280;10650;51.528;6.748;2023-02-16T07:38:36;102166.28;;;7.20;68.84
20983;BME280;10650;51.528;6.748;2023-02-16T07:41:04;102168.06;;;7.21;68.46
20983;BME280;10650;51.528;6.748;2023-02-16T07:43:35;102169.91;;;7.23;68.72
20983;BME280;10650;51.528;6.748;2023-02-16T07:46:03;102169.09;;;7.26;68.46
20983;BME280;10650;51.528;6.748;2023-02-16T07:48:32;102179.78;;;7.29;68.31
20983;BME280;10650;51.528;6.748;2023-02-16T07:51:01;102175.44;;;7.31;68.46
20983;BME280;10650;51.528;6.748;2023-02-16T07:53:29;102181.88;;;7.39;68.33
20983;BME280;10650;51.528;6.748;2023-02-16T07:55:57;102168.72;;;7.45;68.39
20983;BME280;10650;51.528;6.748;2023-02-16T07:58:25;102170.69;;;7.53;68.25
20983;BME280;10650;51.528;6.748;2023-02-16T08:00:56;102162.91;;;7.60;67.95
20983;BME280;10650;51.528;6.748;2023-02-16T08:03:32;102164.88;;;7.68;67.76
20983;BME280;10650;51.528;6.748;2023-02-16T08:06:02;102168.66;;;7.77;67.79
20983;BME280;10650;51.528;6.748;2023-02-16T08:08:30;102166.22;;;7.85;67.11
20983;BME280;10650;51.528;6.748;2023-02-16T08:10:58;102167.25;;;7.92;66.84
20983;BME280;10650;51.528;6.748;2023-02-16T08:13:26;102164.69;;;7.96;67.22
20983;BME280;10650;51.528;6.748;2023-02-16T08:15:53;102165.69;;;8.00;66.75
20983;BME280;10650;51.528;6.748;2023-02-16T08:18:21;102170.00;;;7.96;66.52
20983;BME280;10650;51.528;6.748;2023-02-16T08:20:49;102163.84;;;7.97;66.39
20983;BME280;10650;51.528;6.748;2023-02-16T08:23:31;102173.59;;;7.97;66.55
20983;BME280;10650;51.528;6.748;2023-02-16T08:26:06;102177.13;;;7.96;66.71
20983;BME280;10650;51.528;6.748;2023-02-16T08:28:35;102171.75;;;7.94;66.94
20983;BME280;10650;51.528;6.748;2023-02-16T08:31:04;102179.69;;;7.93;66.63
20983;BME280;10650;51.528;6.748;2023-02-16T08:33:33;102182.41;;;7.94;66.53
20983;BME280;10650;51.528;6.748;2023-02-16T08:36:02;102183.31;;;7.96;66.53
20983;BME280;10650;51.528;6.748;2023-02-16T08:38:31;102176.31;;;8.00;66.85
20983;BME280;10650;51.528;6.748;2023-02-16T08:41:00;102171.91;;;8.01;67.02
20983;BME280;10650;51.528;6.748;2023-02-16T08:43:27;102166.56;;;8.01;66.88
20983;BME280;10650;51.528;6.748;2023-02-16T08:45:55;102173.78;;;8.05;66.72
20983;BME280;10650;51.528;6.748;2023-02-16T08:48:23;102173.00;;;8.09;66.72
20983;BME280;10650;51.528;6.748;2023-02-16T08:50:54;102176.69;;;8.14;66.85
20983;BME280;10650;51.528;6.748;2023-02-16T08:53:21;102173.31;;;8.23;66.62
20983;BME280;10650;51.528;6.748;2023-02-16T08:55:52;102172.63;;;8.31;66.26
20983;BME280;10650;51.528;6.748;2023-02-16T08:58:21;102170.09;;;8.38;66.00
20983;BME280;10650;51.528;6.748;2023-02-16T09:00:49;102173.78;;;8.43;65.69
20983;BME280;10650;51.528;6.748;2023-02-16T09:03:17;102173.97;;;8.51;65.55
20983;BME280;10650;51.528;6.748;2023-02-16T09:05:45;102183.06;;;8.59;65.64
20983;BME280;10650;51.528;6.748;2023-02-16T09:08:13;102174.34;;;8.68;65.71
20983;BME280;10650;51.528;6.748;2023-02-16T09:10:41;102174.50;;;8.75;65.64
20983;BME280;10650;51.528;6.748;2023-02-16T09:13:11;102168.59;;;8.89;65.41
20983;BME280;10650;51.528;6.748;2023-02-16T09:15:41;102180.41;;;9.02;65.19
20983;BME280;10650;51.528;6.748;2023-02-16T09:18:09;102177.13;;;9.16;65.02
20983;BME280;10650;51.528;6.748;2023-02-16T09:20:38;102182.78;;;9.32;64.66
20983;BME280;10650;51.528;6.748;2023-02-16T09:23:07;102176.78;;;9.45;64.05
20983;BME280;10650;51.528;6.748;2023-02-16T09:25:36;102184.19;;;9.59;63.80
20983;BME280;10650;51.528;6.748;2023-02-16T09:28:05;102175.47;;;9.69;64.17
20983;BME280;10650;51.528;6.748;2023-02-16T09:30:37;102182.66;;;9.75;64.01
20983;BME280;10650;51.528;6.748;2023-02-16T09:33:05;102185.38;;;9.78;63.97
20983;BME280;10650;51.528;6.748;2023-02-16T09:35:33;102188.94;;;9.78;63.80
20983;BME280;10650;51.528;6.748;2023-02-16T09:38:01;102184.41;;;9.74;64.23
20983;BME280;10650;51.528;6.748;2023-02-16T09:40:29;102181.69;;;9.71;64.59
20983;BME280;10650;51.528;6.748;2023-02-16T09:43:04;102195.06;;;9.71;64.54
20983;BME280;10650;51.528;6.748;2023-02-16T09:45:42;102203.03;;;9.69;64.58
20983;BME280;10650;51.528;6.748;2023-02-16T09:48:20;102208.28;;;9.65;64.71
20983;BME280;10650;51.528;6.748;2023-02-16T09:50:51;102211.78;;;9.62;64.99
20983;BME280;10650;51.528;6.748;2023-02-16T09:53:26;102210.91;;;9.62;65.02
20983;BME280;10650;51.528;6.748;2023-02-16T09:55:58;102217.06;;;9.58;64.86
20983;BME280;10650;51.528;6.748;2023-02-16T09:58:37;102214.38;;;9.58;65.16
20983;BME280;10650;51.528;6.748;2023-02-16T10:01:16;102216.97;;;9.53;65.62
20983;BME280;10650;51.528;6.748;2023-02-16T10:04:04;102213.47;;;9.56;65.19
20983;BME280;10650;51.528;6.748;2023-02-16T10:06:49;102208.97;;;9.53;65.66
20983;BME280;10650;51.528;6.748;2023-02-16T10:09:25;102202.69;;;9.51;65.24
20983;BME280;10650;51.528;6.748;2023-02-16T10:11:59;102208.84;;;9.48;66.08
20983;BME280;10650;51.528;6.748;2023-02-16T10:14:32;102193.81;;;9.52;65.68
20983;BME280;10650;51.528;6.748;2023-02-16T10:17:12;102201.91;;;9.57;65.98
20983;BME280;10650;51.528;6.748;2023-02-16T10:19:47;102205.56;;;9.62;66.41
20983;BME280;10650;51.528;6.748;2023-02-16T10:22:24;102206.53;;;9.67;66.18
20983;BME280;10650;51.528;6.748;2023-02-16T10:24:58;102209.22;;;9.68;66.21
20983;BME280;10650;51.528;6.748;2023-02-16T10:27:38;102209.22;;;9.68;66.27
20983;BME280;10650;51.528;6.748;2023-02-16T10:30:14;102215.47;;;9.69;66.20
20983;BME280;10650;51.528;6.748;2023-02-16T10:32:53;102210.19;;;9.72;65.74
20983;BME280;10650;51.528;6.748;2023-02-16T10:35:28;102209.38;;;9.76;66.25
20983;BME280;10650;51.528;6.748;2023-02-16T10:38:03;102212.28;;;9.89;66.47
20983;BME280;10650;51.528;6.748;2023-02-16T10:40:40;102212.41;;;9.96;65.95
20983;BME280;10650;51.528;6.748;2023-02-16T10:43:17;102213.47;;;10.06;65.75
20983;BME280;10650;51.528;6.748;2023-02-16T10:45:49;102211.78;;;10.14;65.09
20983;BME280;10650;51.528;6.748;2023-02-16T10:48:21;102212.78;;;10.19;65.25
20983;BME280;10650;51.528;6.748;2023-02-16T10:50:55;102198.66;;;10.28;65.21
20983;BME280;10650;51.528;6.748;2023-02-16T10:53:34;102205.84;;;10.31;65.27
20983;BME280;10650;51.528;6.748;2023-02-16T10:56:23;102197.06;;;10.38;64.89
20983;BME280;10650;51.528;6.748;2023-02-16T10:59:01;102192.72;;;10.43;65.22
20983;BME280;10650;51.528;6.748;2023-02-16T11:01:36;102196.25;;;10.44;65.01
20983;BME280;10650;51.528;6.748;2023-02-16T11:04:06;102185.63;;;10.47;65.30
20983;BME280;10650;51.528;6.748;2023-02-16T11:06:35;102180.25;;;10.45;64.93
20983;BME280;10650;51.528;6.748;2023-02-16T11:09:03;102185.59;;;10.45;65.27
20983;BME280;10650;51.528;6.748;2023-02-16T11:11:35;102182.84;;;10.39;65.05
20983;BME280;10650;51.528;6.748;2023-02-16T11:14:05;102184.56;;;10.37;65.77
20983;BME280;10650;51.528;6.748;2023-02-16T11:16:34;102170.34;;;10.38;65.67
20983;BME280;10650;51.528;6.748;2023-02-16T11:19:06;102173.97;;;10.42;66.40
20983;BME280;10650;51.528;6.748;2023-02-16T11:21:44;102173.09;;;10.43;66.18
20983;BME280;10650;51.528;6.748;2023-02-16T11:24:22;102155.31;;;10.45;66.09
20983;BME280;10650;51.528;6.748;2023-02-16T11:27:02;102147.28;;;10.42;66.00
20983;BME280;10650;51.528;6.748;2023-02-16T11:29:30;102149.94;;;10.42;67.67
20983;BME280;10650;51.528;6.748;2023-02-16T11:32:04;102150.81;;;10.42;67.78
20983;BME280;10650;51.528;6.748;2023-02-16T11:34:35;102152.47;;;10.34;69.12
20983;BME280;10650;51.528;6.748;2023-02-16T11:37:05;102152.41;;;10.31;69.32
20983;BME280;10650;51.528;6.748;2023-02-16T11:39:36;102155.88;;;10.25;70.05
20983;BME280;10650;51.528;6.748;2023-02-16T11:42:06;102155.94;;;10.28;69.85
20983;BME280;10650;51.528;6.748;2023-02-16T11:44:37;102155.97;;;10.33;69.85
20983;BME280;10650;51.528;6.748;2023-02-16T11:47:21;102166.78;;;10.36;70.59
20983;BME280;10650;51.528;6.748;2023-02-16T11:50:08;102155.22;;;10.40;69.44
20983;BME280;10650;51.528;6.748;2023-02-16T11:52:36;102144.63;;;10.45;68.91
20983;BME280;10650;51.528;6.748;2023-02-16T11:55:19;102142.81;;;10.42;70.16
20983;BME280;10650;51.528;6.748;2023-02-16T11:57:48;102129.50;;;10.45;70.33
20983;BME280;10650;51.528;6.748;2023-02-16T12:00:18;102134.91;;;10.51;71.59
20983;BME280;10650;51.528;6.748;2023-02-16T12:03:15;102130.59;;;10.63;71.40
20983;BME280;10650;51.528;6.748;2023-02-16T12:05:56;102130.75;;;10.72;71.41
20983;BME280;10650;51.528;6.748;2023-02-16T12:08:50;102130.75;;;10.72;71.57
20983;BME280;10650;51.528;6.748;2023-02-16T12:11:27;102128.94;;;10.72;71.74
20983;BME280;10650;51.528;6.748;2023-02-16T12:14:06;102136.97;;;10.71;70.57
20983;BME280;10650;51.528;6.748;2023-02-16T12:16:43;102136.06;;;10.69;70.51
20983;BME280;10650;51.528;6.748;2023-02-16T12:19:32;102147.59;;;10.66;70.77
20983;BME280;10650;51.528;6.748;2023-02-16T12:22:08;102152.94;;;10.66;71.18
20983;BME280;10650;51.528;6.748;2023-02-16T12:24:48;102146.78;;;10.72;71.16
20983;BME280;10650;51.528;6.748;2023-02-16T12:27:26;102138.81;;;10.78;70.87
20983;BME280;10650;51.528;6.748;2023-02-16T12:30:00;102130.00;;;10.85;70.65
20983;BME280;10650;51.528;6.748;2023-02-16T12:32:41;102148.78;;;10.91;69.98
20983;BME280;10650;51.528;6.748;2023-02-16T12:35:41;102147.09;;;11.00;70.04
20983;BME280;10650;51.528;6.748;2023-02-16T12:38:21;102143.53;;;10.99;69.45
20983;BME280;10650;51.528;6.748;2023-02-16T12:41:01;102147.13;;;11.01;69.39
20983;BME280;10650;51.528;6.748;2023-02-16T12:43:37;102141.88;;;11.11;70.00
20983;BME280;10650;51.528;6.748;2023-02-16T12:46:12;102142.94;;;11.25;69.28
20983;BME280;10650;51.528;6.748;2023-02-16T12:48:45;102136.75;;;11.31;69.32
20983;BME280;10650;51.528;6.748;2023-02-16T12:51:17;102140.31;;;11.33;68.97
20983;BME280;10650;51.528;6.748;2023-02-16T12:53:53;102130.47;;;11.29;68.98
20983;BME280;10650;51.528;6.748;2023-02-16T12:56:26;102135.81;;;11.27;69.47
20983;BME280;10650;51.528;6.748;2023-02-16T12:59:04;102126.84;;;11.20;69.21
20983;BME280;10650;51.528;6.748;2023-02-16T13:01:34;102123.22;;;11.15;69.51
20983;BME280;10650;51.528;6.748;2023-02-16T13:04:10;102132.06;;;11.08;69.51
20983;BME280;10650;51.528;6.748;2023-02-16T13:06:44;102125.84;;;11.09;70.02
20983;BME280;10650;51.528;6.748;2023-02-16T13:09:23;102117.75;;;11.06;70.20
20983;BME280;10650;51.528;6.748;2023-02-16T13:11:58;102106.16;;;11.05;70.37
20983;BME280;10650;51.528;6.748;2023-02-16T13:14:30;102101.69;;;11.04;70.93
20983;BME280;10650;51.528;6.748;2023-02-16T13:17:02;102098.13;;;11.04;70.93
20983;BME280;10650;51.528;6.748;2023-02-16T13:19:32;102099.97;;;11.08;71.32
20983;BME280;10650;51.528;6.748;2023-02-16T13:22:37;102087.47;;;11.10;71.33
20983;BME280;10650;51.528;6.748;2023-02-16T13:25:30;102084.84;;;11.13;71.83
20983;BME280;10650;51.528;6.748;2023-02-16T13:28:05;102080.44;;;11.18;71.80
20983;BME280;10650;51.528;6.748;2023-02-16T13:31:04;102072.44;;;11.20;71.35